Aviation Digital Data Service (ADDS)

Output produced by METARs form (2041 UTC 30 April 2016)
found at http://www.aviationweather.gov/adds/metars/
 
KFIG 301954Z AUTO VRB04KT 10SM OVC024 12/06 A3014 RMK AO2 SLP212 T01170061
KFIG 301854Z AUTO 05006KT 10SM OVC025 12/06 A3015 RMK AO2 SLP213 T01170061
KFIG 301754Z AUTO 06008KT 10SM OVC023 11/06 A3015 RMK AO2 SLP216 T01060056 10111 20067 55003
KFIG 301654Z AUTO 08008KT 10SM OVC027 11/06 A3015 RMK AO2 SLP215 T01060056
KFIG 301554Z AUTO 08008KT 10SM FEW016 OVC025 11/06 A3016 RMK AO2 SLP218 T01060061
KFIG 301454Z AUTO 07009KT 10SM BKN015 OVC023 09/06 A3016 RMK AO2 SLP220 T00940056 57003
KFIG 301451Z AUTO 09008KT 10SM BKN015 OVC023 09/06 A3016 RMK AO2
KFIG 301354Z AUTO 09008KT 10SM BKN012 OVC026 08/06 A3017 RMK AO2 SLP224 T00830056
KFIG 301254Z AUTO 09005KT 10SM OVC006 07/06 A3017 RMK AO2 CIG 005V010 SLP224 T00720056
KFIG 301154Z AUTO 08006KT 10SM OVC006 07/05 A3017 RMK AO2 CIG 002V009 SLP225 70010 T00670050 10072 20061 50009
KFIG 301150Z AUTO 06006KT 10SM OVC006 07/05 A3018 RMK AO2 CIG 002V009
KFIG 301054Z AUTO 08004KT 8SM OVC002 07/05 A3017 RMK AO2 CIG 002V005 SLP222 T00670050
KFIG 301034Z AUTO 07007KT 10SM BKN004 OVC022 07/05 A3015 RMK AO2 T00670050
KFIG 301007Z AUTO 07007KT 10SM SCT004 OVC023 07/04 A3015 RMK AO2 T00670044
KFIG 300954Z AUTO 07010KT 10SM BKN004 BKN007 OVC023 07/05 A3015 RMK AO2 SLP215 T00670050
KFIG 300952Z AUTO 06007KT 10SM BKN004 BKN007 OVC023 07/05 A3015 RMK AO2
KFIG 300936Z AUTO 06005KT 6SM BR OVC002 07/06 A3015 RMK AO2 T00670056
KFIG 300854Z AUTO 07003KT 10SM OVC004 07/05 A3014 RMK AO2 SLP214 T00670050 53010
KFIG 300805Z AUTO 00000KT 6SM BR OVC004 07/06 A3012 RMK AO2 T00670056
KFIG 300754Z AUTO 00000KT 10SM OVC002 07/06 A3012 RMK AO2 SLP207 T00670056
KFIG 300731Z AUTO 03003KT 3SM BR OVC002 07/06 A3011 RMK AO2 T00670056
KFIG 300715Z AUTO 04004KT 1 1/4SM BR OVC002 07/06 A3011 RMK AO2 T00670056
KFIG 300706Z AUTO 05006KT 1/2SM FG VV002 07/06 A3010 RMK AO2 T00670056
KFIG 300654Z AUTO 05006KT 1/4SM FG VV002 07/06 A3011 RMK AO2 SLP201 T00670056
KFIG 300643Z AUTO 04004KT 1/4SM FG VV002 07/06 A3011 RMK AO2 T00670056
KFIG 300636Z AUTO 05004KT 1 1/2SM BR OVC002 07/06 A3011 RMK AO2 T00670056
KFIG 300623Z AUTO 06005KT 3SM BR OVC002 07/06 A3011 RMK AO2 T00720056
KFIG 300608Z AUTO 05004KT 1 3/4SM BR OVC002 07/06 A3011 RMK AO2 T00720056
KFIG 300554Z AUTO 07003KT 7SM OVC002 07/06 A3011 RMK AO2 RAE08 SLP203 P0000 60003 T00720061 10078 20072 50003
KFIG 300536Z AUTO 09003KT 9SM BKN002 OVC012 07/06 A3011 RMK AO2 RAE08 P0000 T00720061
KFIG 300454Z AUTO 08005KT 4SM -RA BR OVC004 07/06 A3011 RMK AO2 RAE0359B32 SLP204 P0000 T00720061 400830056
KFIG 300436Z AUTO 05004KT 6SM -RA BR OVC004 07/06 A3012 RMK AO2 RAE0359B32 P0000 T00720061
KFIG 300419Z AUTO 07003KT 5SM BR OVC002 07/06 A3012 RMK AO2 RAE0359 P0000 T00720061
KFIG 300411Z AUTO 06003KT 2 1/2SM BR OVC003 07/06 A3011 RMK AO2 VIS 2V3 RAE0359 P0000 T00720061
KFIG 300358Z AUTO 07004KT 3SM -RA BR OVC003 07/06 A3011 RMK AO2 P0000 T00720061
KFIG 300354Z AUTO 06004KT 1SM -RA BR OVC003 07/06 A3011 RMK AO2 RAB14 SLP204 P0001 T00720061
KFIG 300344Z AUTO 04003KT 1 3/4SM -RA BR BKN003 OVC010 07/06 A3012 RMK AO2 RAB14 P0001 T00720061
KFIG 300328Z AUTO 06003KT 4SM -RA BR BKN004 OVC010 07/06 A3011 RMK AO2 RAB14 P0000 T00720061
KFIG 300318Z AUTO 03003KT 2SM -RA BR OVC004 07/06 A3011 RMK AO2 VIS 1V4 RAB14 P0000 T00720061
KFIG 300254Z AUTO 04005KT 5SM BR OVC002 07/06 A3010 RMK AO2 RAE16 SLP200 P0000 60002 T00720061 51020
KFIG 300248Z AUTO 04004KT 3SM BR OVC002 07/06 A3010 RMK AO2 RAE16 P0000
KFIG 300240Z AUTO 05006KT 2SM BR OVC003 07/06 A3010 RMK AO2 RAE16 P0000 T00720061
KFIG 300227Z AUTO 02004KT 1/2SM FG BKN003 OVC010 07/06 A3010 RMK AO2 RAE16 P0000 T00720061
KFIG 300224Z AUTO 03004KT 1 1/4SM BR BKN002 OVC010 07/06 A3009 RMK AO2 RAE16 P0000 T00720061
KFIG 300219Z AUTO 05003KT 4SM BR BKN002 OVC010 07/06 A3009 RMK AO2 RAE16 P0000 T00720061
KFIG 300154Z AUTO 04005KT 4SM -RA BR BKN003 OVC011 07/06 A3009 RMK AO2 SLP195 P0001 T00720061
KFIG 300133Z AUTO 04004KT 3SM -RA BR BKN003 OVC010 08/06 A3008 RMK AO2 P0000 T00780061
KFIG 300123Z AUTO 04006KT 1 1/4SM -RA BR OVC003 08/07 A3009 RMK AO2 P0000 T00780067
KFIG 300054Z AUTO 05003KT 2SM -RA BR OVC003 08/07 A3007 RMK AO2 RAE2358B34 SLP190 P0001 T00780067
KFIG 300040Z AUTO 05003KT 2SM -RA BR OVC003 08/07 A3007 RMK AO2 RAE2358B34 P0000 T00780067
KFIG 300021Z AUTO 08003KT 3SM BR BKN003 OVC008 08/07 A3006 RMK AO2 RAE2358 CIG 002V007 P0000 T00780067
KFIG 300003Z AUTO 08003KT 2SM BR OVC004 08/07 A3005 RMK AO2 RAE2358 P0000 T00780067
KFIG 292354Z AUTO 10004KT 1 3/4SM -RA BR OVC003 08/07 A3004 RMK AO2 RAB40 SLP179 P0001 60003 T00780067 10083 20078 53009
KFIG 292341Z AUTO 10005KT 1 3/4SM -RA BR OVC002 08/07 A3004 RMK AO2 RAB40 P0001 T00830072
KFIG 292326Z AUTO 06005KT 2 1/2SM BR OVC002 08/07 A3004 RMK AO2 T00830067
KFIG 292314Z AUTO 07003KT 3SM BR BKN002 OVC006 08/07 A3004 RMK AO2 T00830072
KFIG 292301Z AUTO 10005KT 2 1/2SM BR BKN002 BKN009 OVC015 08/07 A3003 RMK AO2 T00830072
KFIG 292254Z AUTO 06004KT 1 1/2SM BR BKN004 BKN007 OVC015 08/07 A3003 RMK AO2 RAB13E43 SLP174 P0001 T00830072
KFIG 292241Z AUTO 05005KT 1 1/4SM -RA BR BKN004 OVC015 08/07 A3002 RMK AO2 RAB13 P0001 T00830072
KFIG 292223Z AUTO 02004KT 1/2SM -RA FG OVC004 08/07 A3002 RMK AO2 RAB13 P0001 T00830072
KFIG 292154Z AUTO 03003KT 1SM BR OVC003 08/07 A3001 RMK AO2 SLP169 T00830072
KFIG 292135Z AUTO 00000KT 1 3/4SM BR OVC005 08/07 A3000 RMK AO2 CIG 003V008 T00830072
KFIG 292132Z AUTO 00000KT 2SM BR OVC005 08/07 A3000 RMK AO2 CIG 003V009 T00830067
KFIG 292107Z AUTO 10003KT 4SM BR BKN005 OVC010 08/07 A3000 RMK AO2 CIG 003V008 T00830067
KFIG 292054Z AUTO 12004KT 3SM BR BKN004 OVC012 08/07 A3000 RMK AO2 RAB26E35 CIG 003V009 SLP164 P0000 60001 T00830072 55000
KFIG 292051Z AUTO 12003KT 3SM BR BKN004 OVC012 08/07 A2999 RMK AO2 RAB26E35 CIG 002V009 P0000
KFIG 292041Z AUTO 11004KT 2 1/2SM BR BKN004 OVC010 08/07 A3000 RMK AO2 RAB26E35 CIG 002V008 P0000 T00830067
KFIG 292013Z AUTO VRB03KT 1 1/4SM BR BKN004 OVC008 08/07 A3000 RMK AO2 CIG 002V007 T00830067
KFIG 291951Z AUTO 00000KT 1 3/4SM BR OVC007 08/07 A3000 RMK AO2 CIG 003V009 SLP164 T00830072
KFIG 291950Z AUTO 13003KT 1 3/4SM BR OVC007 08/07 A3000 RMK AO2 CIG 004V009
KFIG 291931Z AUTO 00000KT 7SM OVC007 08/07 A3000 RMK AO2 CIG 003V010 T00830067
KFIG 291914Z AUTO 11004KT 4SM BR BKN004 OVC009 08/07 A2999 RMK AO2 CIG 003V008 T00830067
KFIG 291854Z AUTO 13004KT 2SM BR BKN004 OVC009 08/07 A3000 RMK AO2 CIG 003V006 SLP164 P0001 T00830067
KFIG 291845Z AUTO 13004KT 1 1/2SM BR BKN003 OVC009 08/07 A2999 RMK AO2 CIG 002V007 P0001 T00830067
KFIG 291835Z AUTO VRB03KT 2 1/2SM BR BKN003 OVC009 08/07 A2999 RMK AO2 CIG 002V007 P0001 T00830067
KFIG 291826Z AUTO 10007KT 1 3/4SM BR OVC003 08/07 A2998 RMK AO2 CIG 002V006 P0001 T00780067
KFIG 291815Z AUTO 13004KT 1 1/4SM BR OVC002 08/07 A2999 RMK AO2 P0001 T00780067
KFIG 291754Z AUTO 13004KT 1 1/2SM BR BKN003 OVC008 08/07 A3000 RMK AO2 RAB40E50 SLP165 P0000 60004 T00780067 10083 20061 56001
KFIG 291738Z AUTO VRB03KT 1 1/2SM BR OVC004 08/07 A3001 RMK AO2 CIG 002V009 T00780067
KFIG 291726Z AUTO 11004KT 2 1/2SM BR OVC006 08/07 A3001 RMK AO2 CIG 004V009 T00780067
KFIG 291654Z AUTO 00000KT 5SM BR OVC006 08/06 A3000 RMK AO2 SLP165 T00780061
KFIG 291554Z AUTO 10006KT 10SM OVC006 08/06 A2999 RMK AO2 RAB31E52 SLP163 P0000 T00780061
KFIG 291454Z AUTO 10005KT 4SM BR OVC007 07/06 A3000 RMK AO2 RAB1359E32 CIG 004V010 SLP166 P0001 60004 T00720056 58001
KFIG 291419Z AUTO 10004KT 3SM -RA BR OVC005 07/05 A3001 RMK AO2 RAB1359 CIG 003V009 P0000 T00670050
KFIG 291354Z AUTO 12004KT 2SM BR BKN003 OVC007 07/05 A3001 RMK AO2 CIG 002V006 SLP171 T00670050
KFIG 291352Z AUTO 00000KT 2SM BR OVC003 07/06 A3001 RMK AO2 CIG 002V006
KFIG 291340Z AUTO 00000KT 1 3/4SM BR OVC003 07/06 A3001 RMK AO2 T00670056
KFIG 291318Z AUTO 00000KT 2SM BR OVC004 07/06 A3002 RMK AO2 CIG 002V008 T00670056
KFIG 291254Z AUTO 12004KT 2 1/2SM BR OVC005 06/05 A3000 RMK AO2 RAE32 CIG 003V008 SLP168 P0003 T00610050
KFIG 291231Z AUTO 10003KT 3SM -RA BR OVC005 06/05 A3001 RMK AO2 CIG 003V007 P0003 T00610050
KFIG 291218Z AUTO 10005KT 2SM RA BR OVC006 06/05 A3001 RMK AO2 P0002 T00610050
KFIG 291154Z AUTO 08004KT 3SM -RA BR OVC006 06/04 A3001 RMK AO2 RAE11B28 SLP171 P0001 60002 70063 T00610044 10061 20056 53011
KFIG 291104Z AUTO 07006KT 3SM -RA BR OVC005 06/04 A3000 RMK AO2 CIG 002V008 P0001 T00560044
KFIG 291054Z AUTO 07006KT 2 1/2SM -RA BR BKN003 OVC008 06/04 A3000 RMK AO2 RAE23B39 SLP167 P0000 T00560044
KFIG 291004Z AUTO 06006KT 3SM -RA BR OVC003 06/04 A2999 RMK AO2 P0000 T00560044
KFIG 290954Z AUTO 07005KT 2 1/2SM -RA BR OVC003 06/04 A2998 RMK AO2 RAB35 SLP162 P0001 T00560044
KFIG 290854Z AUTO 06006KT 2 1/2SM BR OVC002 06/04 A2998 RMK AO2 RAE0759B41E52 SLP160 P0000 60000 T00560044 55000
KFIG 290843Z AUTO 07007KT 2SM -RA BR OVC002 06/04 A2997 RMK AO2 RAE0759B41 P0000 T00560044